sensor_id;sensor_type;location;lat;lon;timestamp;temperature;humidity
37560;DHT22;23398;50.928;7.084;2023-06-14T00:00:51;20.50;47.90
37560;DHT22;23398;50.928;7.084;2023-06-14T00:03:18;20.40;47.60
37560;DHT22;23398;50.928;7.084;2023-06-14T00:05:47;20.30;48.30
37560;DHT22;23398;50.928;7.084;2023-06-14T00:08:13;20.30;49.00
37560;DHT22;23398;50.928;7.084;2023-06-14T00:10:40;20.20;49.30
37560;DHT22;23398;50.928;7.084;2023-06-14T00:13:08;20.10;49.50
37560;DHT22;23398;50.928;7.084;2023-06-14T00:15:33;20.10;49.70
37560;DHT22;23398;50.928;7.084;2023-06-14T00:17:59;20.00;49.90
37560;DHT22;23398;50.928;7.084;2023-06-14T00:20:29;19.80;50.10
37560;DHT22;23398;50.928;7.084;2023-06-14T00:22:56;19.80;50.30
37560;DHT22;23398;50.928;7.084;2023-06-14T00:25:23;19.70;50.40
37560;DHT22;23398;50.928;7.084;2023-06-14T00:27:49;19.60;50.40
37560;DHT22;23398;50.928;7.084;2023-06-14T00:30:14;19.40;50.60
37560;DHT22;23398;50.928;7.084;2023-06-14T00:32:40;19.40;51.00
37560;DHT22;23398;50.928;7.084;2023-06-14T00:35:08;19.30;51.10
37560;DHT22;23398;50.928;7.084;2023-06-14T00:37:34;19.20;51.30
37560;DHT22;23398;50.928;7.084;2023-06-14T00:39:59;19.00;51.60
37560;DHT22;23398;50.928;7.084;2023-06-14T00:42:25;19.00;51.70
37560;DHT22;23398;50.928;7.084;2023-06-14T00:44:51;18.90;51.50
37560;DHT22;23398;50.928;7.084;2023-06-14T00:47:17;18.80;51.80
37560;DHT22;23398;50.928;7.084;2023-06-14T00:49:45;18.70;52.20
37560;DHT22;23398;50.928;7.084;2023-06-14T00:52:11;18.70;52.20
37560;DHT22;23398;50.928;7.084;2023-06-14T00:54:38;18.60;52.10
37560;DHT22;23398;50.928;7.084;2023-06-14T00:57:04;18.60;52.00
37560;DHT22;23398;50.928;7.084;2023-06-14T00:59:30;18.50;52.20
37560;DHT22;23398;50.928;7.084;2023-06-14T01:01:55;18.40;52.40
37560;DHT22;23398;50.928;7.084;2023-06-14T01:04:21;18.40;52.60
37560;DHT22;23398;50.928;7.084;2023-06-14T01:12:24;18.20;52.60
37560;DHT22;23398;50.928;7.084;2023-06-14T01:14:54;18.10;52.50
37560;DHT22;23398;50.928;7.084;2023-06-14T01:17:21;18.10;52.60
37560;DHT22;23398;50.928;7.084;2023-06-14T01:19:48;18.10;52.80
37560;DHT22;23398;50.928;7.084;2023-06-14T01:22:14;18.00;52.70
37560;DHT22;23398;50.928;7.084;2023-06-14T01:24:40;17.90;52.90
37560;DHT22;23398;50.928;7.084;2023-06-14T01:27:10;17.90;53.10
37560;DHT22;23398;50.928;7.084;2023-06-14T01:29:36;17.80;53.00
37560;DHT22;23398;50.928;7.084;2023-06-14T01:32:03;17.80;53.30
37560;DHT22;23398;50.928;7.084;2023-06-14T01:34:29;17.70;53.50
37560;DHT22;23398;50.928;7.084;2023-06-14T01:36:55;17.60;53.80
37560;DHT22;23398;50.928;7.084;2023-06-14T01:39:22;17.60;53.90
37560;DHT22;23398;50.928;7.084;2023-06-14T01:41:49;17.50;54.20
37560;DHT22;23398;50.928;7.084;2023-06-14T01:44:16;17.50;54.80
37560;DHT22;23398;50.928;7.084;2023-06-14T01:46:43;17.40;55.00
37560;DHT22;23398;50.928;7.084;2023-06-14T01:49:09;17.40;55.10
37560;DHT22;23398;50.928;7.084;2023-06-14T01:51:34;17.30;55.20
37560;DHT22;23398;50.928;7.084;2023-06-14T01:54:01;17.20;55.30
37560;DHT22;23398;50.928;7.084;2023-06-14T01:56:26;17.20;55.50
37560;DHT22;23398;50.928;7.084;2023-06-14T01:58:52;17.20;55.60
37560;DHT22;23398;50.928;7.084;2023-06-14T02:01:19;17.20;55.80
37560;DHT22;23398;50.928;7.084;2023-06-14T02:03:47;17.10;55.80
37560;DHT22;23398;50.928;7.084;2023-06-14T02:06:14;17.10;55.70
37560;DHT22;23398;50.928;7.084;2023-06-14T02:08:41;17.10;55.80
37560;DHT22;23398;50.928;7.084;2023-06-14T02:11:08;17.10;55.70
37560;DHT22;23398;50.928;7.084;2023-06-14T02:13:33;17.00;55.60
37560;DHT22;23398;50.928;7.084;2023-06-14T02:16:00;17.20;55.80
37560;DHT22;23398;50.928;7.084;2023-06-14T02:18:25;17.00;55.70
37560;DHT22;23398;50.928;7.084;2023-06-14T02:20:51;17.00;55.40
37560;DHT22;23398;50.928;7.084;2023-06-14T02:23:17;17.10;55.70
37560;DHT22;23398;50.928;7.084;2023-06-14T02:25:43;17.10;55.70
37560;DHT22;23398;50.928;7.084;2023-06-14T02:28:10;17.10;56.00
37560;DHT22;23398;50.928;7.084;2023-06-14T02:30:35;17.10;56.20
37560;DHT22;23398;50.928;7.084;2023-06-14T02:33:01;17.10;56.00
37560;DHT22;23398;50.928;7.084;2023-06-14T02:35:27;17.10;55.70
37560;DHT22;23398;50.928;7.084;2023-06-14T02:37:53;17.00;55.70
37560;DHT22;23398;50.928;7.084;2023-06-14T02:40:19;17.00;56.10
37560;DHT22;23398;50.928;7.084;2023-06-14T02:42:45;17.00;56.40
37560;DHT22;23398;50.928;7.084;2023-06-14T02:45:11;17.00;56.50
37560;DHT22;23398;50.928;7.084;2023-06-14T02:47:36;17.10;56.70
37560;DHT22;23398;50.928;7.084;2023-06-14T02:50:02;17.00;56.80
37560;DHT22;23398;50.928;7.084;2023-06-14T02:52:28;17.10;57.00
37560;DHT22;23398;50.928;7.084;2023-06-14T02:54:54;17.10;57.20
37560;DHT22;23398;50.928;7.084;2023-06-14T02:57:21;17.10;57.20
37560;DHT22;23398;50.928;7.084;2023-06-14T02:59:47;17.10;57.00
37560;DHT22;23398;50.928;7.084;2023-06-14T03:02:12;17.10;56.90
37560;DHT22;23398;50.928;7.084;2023-06-14T03:04:38;17.10;57.20
37560;DHT22;23398;50.928;7.084;2023-06-14T03:07:04;17.10;57.40
37560;DHT22;23398;50.928;7.084;2023-06-14T03:09:39;17.00;57.20
37560;DHT22;23398;50.928;7.084;2023-06-14T03:12:06;17.00;57.30
37560;DHT22;23398;50.928;7.084;2023-06-14T03:14:32;17.00;57.60
37560;DHT22;23398;50.928;7.084;2023-06-14T03:16:58;16.90;57.70
37560;DHT22;23398;50.928;7.084;2023-06-14T03:19:24;16.90;57.70
37560;DHT22;23398;50.928;7.084;2023-06-14T03:21:51;16.80;57.80
37560;DHT22;23398;50.928;7.084;2023-06-14T03:24:17;16.80;58.00
37560;DHT22;23398;50.928;7.084;2023-06-14T03:26:43;16.70;58.10
37560;DHT22;23398;50.928;7.084;2023-06-14T03:29:08;16.70;57.80
37560;DHT22;23398;50.928;7.084;2023-06-14T03:31:34;16.70;58.00
37560;DHT22;23398;50.928;7.084;2023-06-14T03:34:00;16.60;58.10
37560;DHT22;23398;50.928;7.084;2023-06-14T03:36:26;16.50;58.20
37560;DHT22;23398;50.928;7.084;2023-06-14T03:38:53;16.50;58.40
37560;DHT22;23398;50.928;7.084;2023-06-14T03:41:19;16.50;58.70
37560;DHT22;23398;50.928;7.084;2023-06-14T03:43:45;16.50;59.10
37560;DHT22;23398;50.928;7.084;2023-06-14T03:46:10;16.50;59.30
37560;DHT22;23398;50.928;7.084;2023-06-14T03:48:36;16.50;60.10
37560;DHT22;23398;50.928;7.084;2023-06-14T03:51:02;16.50;59.80
37560;DHT22;23398;50.928;7.084;2023-06-14T03:53:28;16.50;60.00
37560;DHT22;23398;50.928;7.084;2023-06-14T03:55:55;16.50;60.00
37560;DHT22;23398;50.928;7.084;2023-06-14T03:58:20;16.50;60.20
37560;DHT22;23398;50.928;7.084;2023-06-14T04:00:46;16.50;59.90
37560;DHT22;23398;50.928;7.084;2023-06-14T04:03:12;16.50;59.90
37560;DHT22;23398;50.928;7.084;2023-06-14T04:05:39;16.50;60.10
37560;DHT22;23398;50.928;7.084;2023-06-14T04:08:08;16.60;60.20
37560;DHT22;23398;50.928;7.084;2023-06-14T04:10:34;16.60;60.10
37560;DHT22;23398;50.928;7.084;2023-06-14T04:13:00;16.60;60.30
37560;DHT22;23398;50.928;7.084;2023-06-14T04:15:26;16.60;60.40
37560;DHT22;23398;50.928;7.084;2023-06-14T04:17:53;16.70;60.70
37560;DHT22;23398;50.928;7.084;2023-06-14T04:20:22;16.70;60.50
37560;DHT22;23398;50.928;7.084;2023-06-14T04:22:49;16.70;60.30
37560;DHT22;23398;50.928;7.084;2023-06-14T04:25:15;16.80;60.90
37560;DHT22;23398;50.928;7.084;2023-06-14T04:27:42;16.80;59.90
37560;DHT22;23398;50.928;7.084;2023-06-14T04:30:08;16.90;59.90
37560;DHT22;23398;50.928;7.084;2023-06-14T04:32:33;17.00;59.70
37560;DHT22;23398;50.928;7.084;2023-06-14T04:35:06;17.10;59.80
37560;DHT22;23398;50.928;7.084;2023-06-14T04:37:32;17.10;59.20
37560;DHT22;23398;50.928;7.084;2023-06-14T04:39:58;17.20;59.80
37560;DHT22;23398;50.928;7.084;2023-06-14T04:42:24;17.30;59.80
37560;DHT22;23398;50.928;7.084;2023-06-14T04:44:56;17.40;59.80
37560;DHT22;23398;50.928;7.084;2023-06-14T04:47:22;17.40;59.70
37560;DHT22;23398;50.928;7.084;2023-06-14T04:49:50;17.50;59.80
37560;DHT22;23398;50.928;7.084;2023-06-14T04:52:17;17.60;60.20
37560;DHT22;23398;50.928;7.084;2023-06-14T04:54:46;17.70;60.30
37560;DHT22;23398;50.928;7.084;2023-06-14T04:57:12;17.80;60.20
37560;DHT22;23398;50.928;7.084;2023-06-14T04:59:39;17.90;60.00
37560;DHT22;23398;50.928;7.084;2023-06-14T05:02:05;18.00;59.90
37560;DHT22;23398;50.928;7.084;2023-06-14T05:04:32;18.10;59.90
37560;DHT22;23398;50.928;7.084;2023-06-14T05:06:58;18.20;59.60
37560;DHT22;23398;50.928;7.084;2023-06-14T05:09:23;18.30;59.60
37560;DHT22;23398;50.928;7.084;2023-06-14T05:11:49;18.40;59.50
37560;DHT22;23398;50.928;7.084;2023-06-14T05:14:15;18.50;59.60
37560;DHT22;23398;50.928;7.084;2023-06-14T05:16:41;18.50;59.60
37560;DHT22;23398;50.928;7.084;2023-06-14T05:19:08;18.60;59.60
37560;DHT22;23398;50.928;7.084;2023-06-14T05:21:33;18.70;59.20
37560;DHT22;23398;50.928;7.084;2023-06-14T05:24:00;18.80;59.00
37560;DHT22;23398;50.928;7.084;2023-06-14T05:26:27;18.90;58.90
37560;DHT22;23398;50.928;7.084;2023-06-14T05:28:58;19.00;59.20
37560;DHT22;23398;50.928;7.084;2023-06-14T05:31:26;19.10;58.80
37560;DHT22;23398;50.928;7.084;2023-06-14T05:33:52;19.20;58.60
37560;DHT22;23398;50.928;7.084;2023-06-14T05:36:21;19.40;58.60
37560;DHT22;23398;50.928;7.084;2023-06-14T05:38:47;19.50;58.00
37560;DHT22;23398;50.928;7.084;2023-06-14T05:41:13;19.60;57.50
37560;DHT22;23398;50.928;7.084;2023-06-14T05:43:39;19.70;56.20
37560;DHT22;23398;50.928;7.084;2023-06-14T05:46:04;19.90;55.60
37560;DHT22;23398;50.928;7.084;2023-06-14T05:48:30;20.00;55.30
37560;DHT22;23398;50.928;7.084;2023-06-14T05:50:56;20.10;55.20
37560;DHT22;23398;50.928;7.084;2023-06-14T05:53:22;20.40;54.50
37560;DHT22;23398;50.928;7.084;2023-06-14T05:55:47;20.40;53.90
37560;DHT22;23398;50.928;7.084;2023-06-14T05:58:13;20.60;53.60
37560;DHT22;23398;50.928;7.084;2023-06-14T06:00:39;20.70;53.00
37560;DHT22;23398;50.928;7.084;2023-06-14T06:03:04;20.80;52.80
37560;DHT22;23398;50.928;7.084;2023-06-14T06:05:33;21.00;52.20
37560;DHT22;23398;50.928;7.084;2023-06-14T06:07:58;21.10;52.10
37560;DHT22;23398;50.928;7.084;2023-06-14T06:10:25;21.30;52.40
37560;DHT22;23398;50.928;7.084;2023-06-14T06:12:51;21.40;51.90
37560;DHT22;23398;50.928;7.084;2023-06-14T06:15:17;21.50;51.60
37560;DHT22;23398;50.928;7.084;2023-06-14T06:17:44;21.60;51.30
37560;DHT22;23398;50.928;7.084;2023-06-14T06:20:10;21.70;51.00
37560;DHT22;23398;50.928;7.084;2023-06-14T06:22:37;21.90;50.90
37560;DHT22;23398;50.928;7.084;2023-06-14T06:25:03;22.00;50.60
37560;DHT22;23398;50.928;7.084;2023-06-14T06:27:29;22.10;50.40
37560;DHT22;23398;50.928;7.084;2023-06-14T06:29:54;22.20;50.40
37560;DHT22;23398;50.928;7.084;2023-06-14T06:32:21;22.40;50.30
37560;DHT22;23398;50.928;7.084;2023-06-14T06:34:47;22.60;50.10
37560;DHT22;23398;50.928;7.084;2023-06-14T06:37:13;22.70;49.90
37560;DHT22;23398;50.928;7.084;2023-06-14T06:39:39;22.80;49.50
37560;DHT22;23398;50.928;7.084;2023-06-14T06:42:05;22.90;50.00
37560;DHT22;23398;50.928;7.084;2023-06-14T06:44:30;23.40;50.90
37560;DHT22;23398;50.928;7.084;2023-06-14T06:46:57;23.90;51.40
37560;DHT22;23398;50.928;7.084;2023-06-14T06:49:23;24.80;51.50
37560;DHT22;23398;50.928;7.084;2023-06-14T06:52:02;25.80;50.80
37560;DHT22;23398;50.928;7.084;2023-06-14T06:54:28;27.00;48.50
37560;DHT22;23398;50.928;7.084;2023-06-14T06:56:53;28.10;46.90
37560;DHT22;23398;50.928;7.084;2023-06-14T06:59:19;29.40;46.20
37560;DHT22;23398;50.928;7.084;2023-06-14T07:01:45;30.60;44.10
37560;DHT22;23398;50.928;7.084;2023-06-14T07:04:10;31.80;42.80
37560;DHT22;23398;50.928;7.084;2023-06-14T07:06:36;33.00;40.60
37560;DHT22;23398;50.928;7.084;2023-06-14T07:09:02;34.10;38.20
37560;DHT22;23398;50.928;7.084;2023-06-14T07:11:30;35.10;36.70
37560;DHT22;23398;50.928;7.084;2023-06-14T07:13:55;36.00;34.70
37560;DHT22;23398;50.928;7.084;2023-06-14T07:16:21;36.80;33.70
37560;DHT22;23398;50.928;7.084;2023-06-14T07:18:47;37.70;33.00
37560;DHT22;23398;50.928;7.084;2023-06-14T07:21:12;38.40;30.70
37560;DHT22;23398;50.928;7.084;2023-06-14T07:23:38;39.20;30.00
37560;DHT22;23398;50.928;7.084;2023-06-14T07:26:03;39.80;29.40
37560;DHT22;23398;50.928;7.084;2023-06-14T07:28:29;40.40;28.60
37560;DHT22;23398;50.928;7.084;2023-06-14T07:30:55;40.90;27.00
37560;DHT22;23398;50.928;7.084;2023-06-14T07:33:20;41.40;26.10
37560;DHT22;23398;50.928;7.084;2023-06-14T07:35:46;41.90;26.30
37560;DHT22;23398;50.928;7.084;2023-06-14T07:38:13;42.30;26.00
37560;DHT22;23398;50.928;7.084;2023-06-14T07:40:38;42.80;24.50
37560;DHT22;23398;50.928;7.084;2023-06-14T07:43:04;43.20;24.90
37560;DHT22;23398;50.928;7.084;2023-06-14T07:45:29;43.70;24.40
37560;DHT22;23398;50.928;7.084;2023-06-14T07:47:55;44.20;24.00
37560;DHT22;23398;50.928;7.084;2023-06-14T07:50:21;44.70;23.50
37560;DHT22;23398;50.928;7.084;2023-06-14T07:52:47;45.00;22.80
37560;DHT22;23398;50.928;7.084;2023-06-14T07:55:13;45.20;22.60
37560;DHT22;23398;50.928;7.084;2023-06-14T07:57:39;45.40;21.60
37560;DHT22;23398;50.928;7.084;2023-06-14T08:00:05;45.50;21.70
37560;DHT22;23398;50.928;7.084;2023-06-14T08:02:32;45.70;22.20
37560;DHT22;23398;50.928;7.084;2023-06-14T08:04:57;45.90;21.40
37560;DHT22;23398;50.928;7.084;2023-06-14T08:07:24;46.10;21.30
37560;DHT22;23398;50.928;7.084;2023-06-14T08:09:50;46.30;20.80
37560;DHT22;23398;50.928;7.084;2023-06-14T08:12:15;46.40;20.80
37560;DHT22;23398;50.928;7.084;2023-06-14T08:14:42;46.50;19.90
37560;DHT22;23398;50.928;7.084;2023-06-14T08:17:08;46.40;20.30
37560;DHT22;23398;50.928;7.084;2023-06-14T08:19:33;46.30;20.00
37560;DHT22;23398;50.928;7.084;2023-06-14T08:21:59;46.20;20.00
37560;DHT22;23398;50.928;7.084;2023-06-14T08:24:25;46.10;20.30
37560;DHT22;23398;50.928;7.084;2023-06-14T08:26:53;46.00;19.60
37560;DHT22;23398;50.928;7.084;2023-06-14T08:29:19;45.80;19.90
37560;DHT22;23398;50.928;7.084;2023-06-14T08:31:45;45.80;19.90
37560;DHT22;23398;50.928;7.084;2023-06-14T08:34:10;45.70;20.00
37560;DHT22;23398;50.928;7.084;2023-06-14T08:36:36;45.80;20.00
37560;DHT22;23398;50.928;7.084;2023-06-14T08:39:02;46.00;20.00
37560;DHT22;23398;50.928;7.084;2023-06-14T08:41:28;46.20;19.80
37560;DHT22;23398;50.928;7.084;2023-06-14T08:43:56;46.40;19.60
37560;DHT22;23398;50.928;7.084;2023-06-14T08:46:23;46.50;19.30
37560;DHT22;23398;50.928;7.084;2023-06-14T08:48:52;46.60;19.70
37560;DHT22;23398;50.928;7.084;2023-06-14T08:51:21;46.80;19.60
37560;DHT22;23398;50.928;7.084;2023-06-14T08:53:52;47.00;19.40
37560;DHT22;23398;50.928;7.084;2023-06-14T08:56:18;47.30;19.30
37560;DHT22;23398;50.928;7.084;2023-06-14T08:58:47;47.70;19.10
37560;DHT22;23398;50.928;7.084;2023-06-14T09:01:13;48.00;19.30
37560;DHT22;23398;50.928;7.084;2023-06-14T09:03:43;48.40;19.10
37560;DHT22;23398;50.928;7.084;2023-06-14T09:06:10;48.90;19.20
37560;DHT22;23398;50.928;7.084;2023-06-14T09:08:41;49.30;18.80
37560;DHT22;23398;50.928;7.084;2023-06-14T09:11:08;49.80;18.70
37560;DHT22;23398;50.928;7.084;2023-06-14T09:13:34;50.20;18.00
37560;DHT22;23398;50.928;7.084;2023-06-14T09:16:00;50.10;17.70
37560;DHT22;23398;50.928;7.084;2023-06-14T09:18:40;49.90;17.90
37560;DHT22;23398;50.928;7.084;2023-06-14T09:21:07;49.60;18.10
37560;DHT22;23398;50.928;7.084;2023-06-14T09:23:40;49.40;18.20
37560;DHT22;23398;50.928;7.084;2023-06-14T09:26:10;49.20;18.30
37560;DHT22;23398;50.928;7.084;2023-06-14T09:28:40;48.90;18.00
37560;DHT22;23398;50.928;7.084;2023-06-14T09:31:06;48.50;18.10
37560;DHT22;23398;50.928;7.084;2023-06-14T09:33:34;48.00;18.20
37560;DHT22;23398;50.928;7.084;2023-06-14T09:35:59;47.60;18.70
37560;DHT22;23398;50.928;7.084;2023-06-14T09:38:25;47.40;18.80
37560;DHT22;23398;50.928;7.084;2023-06-14T09:40:51;47.40;18.70
37560;DHT22;23398;50.928;7.084;2023-06-14T09:43:17;47.30;18.70
37560;DHT22;23398;50.928;7.084;2023-06-14T09:45:44;47.30;18.90
37560;DHT22;23398;50.928;7.084;2023-06-14T09:48:14;47.40;18.90
37560;DHT22;23398;50.928;7.084;2023-06-14T09:50:45;47.40;18.90
37560;DHT22;23398;50.928;7.084;2023-06-14T09:53:12;47.50;19.10
37560;DHT22;23398;50.928;7.084;2023-06-14T09:55:40;47.80;18.90
37560;DHT22;23398;50.928;7.084;2023-06-14T09:58:07;48.10;18.80
37560;DHT22;23398;50.928;7.084;2023-06-14T10:00:34;48.40;18.50
37560;DHT22;23398;50.928;7.084;2023-06-14T10:03:13;48.60;18.60
37560;DHT22;23398;50.928;7.084;2023-06-14T10:05:41;48.70;18.70
37560;DHT22;23398;50.928;7.084;2023-06-14T10:08:11;48.50;18.30
37560;DHT22;23398;50.928;7.084;2023-06-14T10:10:40;48.30;18.60
37560;DHT22;23398;50.928;7.084;2023-06-14T10:13:08;48.00;18.60
37560;DHT22;23398;50.928;7.084;2023-06-14T10:15:46;47.60;18.40
37560;DHT22;23398;50.928;7.084;2023-06-14T10:18:32;47.40;19.00
37560;DHT22;23398;50.928;7.084;2023-06-14T10:21:26;47.10;19.30
37560;DHT22;23398;50.928;7.084;2023-06-14T10:23:55;47.10;18.90
37560;DHT22;23398;50.928;7.084;2023-06-14T10:26:23;47.10;19.60
37560;DHT22;23398;50.928;7.084;2023-06-14T10:29:01;47.20;19.00
37560;DHT22;23398;50.928;7.084;2023-06-14T10:31:49;47.40;19.40
37560;DHT22;23398;50.928;7.084;2023-06-14T10:34:23;47.40;19.30
37560;DHT22;23398;50.928;7.084;2023-06-14T10:37:04;47.40;19.70
37560;DHT22;23398;50.928;7.084;2023-06-14T10:39:31;47.30;19.30
37560;DHT22;23398;50.928;7.084;2023-06-14T10:41:57;47.10;19.40
37560;DHT22;23398;50.928;7.084;2023-06-14T10:46:59;46.50;20.60
37560;DHT22;23398;50.928;7.084;2023-06-14T10:49:44;45.90;19.50
37560;DHT22;23398;50.928;7.084;2023-06-14T10:52:20;44.90;20.20
37560;DHT22;23398;50.928;7.084;2023-06-14T10:55:12;44.40;19.80
37560;DHT22;23398;50.928;7.084;2023-06-14T11:00:23;42.60;20.60
37560;DHT22;23398;50.928;7.084;2023-06-14T11:05:54;40.20;22.10
37560;DHT22;23398;50.928;7.084;2023-06-14T11:11:18;37.90;23.10
37560;DHT22;23398;50.928;7.084;2023-06-14T11:13:46;36.90;24.10
37560;DHT22;23398;50.928;7.084;2023-06-14T11:16:18;36.20;24.70
37560;DHT22;23398;50.928;7.084;2023-06-14T11:18:45;35.50;25.40
37560;DHT22;23398;50.928;7.084;2023-06-14T11:21:11;34.90;25.90
37560;DHT22;23398;50.928;7.084;2023-06-14T11:23:37;34.30;26.40
37560;DHT22;23398;50.928;7.084;2023-06-14T11:26:03;33.80;26.40
37560;DHT22;23398;50.928;7.084;2023-06-14T11:28:40;33.30;26.70
37560;DHT22;23398;50.928;7.084;2023-06-14T11:31:06;32.90;27.10
37560;DHT22;23398;50.928;7.084;2023-06-14T11:33:32;32.50;27.50
37560;DHT22;23398;50.928;7.084;2023-06-14T11:35:57;32.10;27.70
37560;DHT22;23398;50.928;7.084;2023-06-14T11:38:23;31.80;27.70
37560;DHT22;23398;50.928;7.084;2023-06-14T11:40:50;31.50;27.90
37560;DHT22;23398;50.928;7.084;2023-06-14T11:43:15;31.30;28.00
37560;DHT22;23398;50.928;7.084;2023-06-14T11:45:42;31.10;28.00
37560;DHT22;23398;50.928;7.084;2023-06-14T11:48:08;30.90;28.20
37560;DHT22;23398;50.928;7.084;2023-06-14T11:50:37;30.60;28.40
37560;DHT22;23398;50.928;7.084;2023-06-14T11:53:04;30.40;28.60
37560;DHT22;23398;50.928;7.084;2023-06-14T11:55:38;30.20;28.90
37560;DHT22;23398;50.928;7.084;2023-06-14T11:58:05;30.00;29.40
37560;DHT22;23398;50.928;7.084;2023-06-14T12:00:31;29.90;29.30
37560;DHT22;23398;50.928;7.084;2023-06-14T12:02:57;29.70;29.60
37560;DHT22;23398;50.928;7.084;2023-06-14T12:05:23;29.60;30.60
37560;DHT22;23398;50.928;7.084;2023-06-14T12:07:50;29.50;31.10
37560;DHT22;23398;50.928;7.084;2023-06-14T12:10:18;29.40;30.60
37560;DHT22;23398;50.928;7.084;2023-06-14T12:12:44;29.40;31.30
37560;DHT22;23398;50.928;7.084;2023-06-14T12:15:10;29.40;31.40
37560;DHT22;23398;50.928;7.084;2023-06-14T12:17:39;29.30;31.20
37560;DHT22;23398;50.928;7.084;2023-06-14T12:20:12;29.30;31.30
37560;DHT22;23398;50.928;7.084;2023-06-14T12:22:46;29.30;31.50
37560;DHT22;23398;50.928;7.084;2023-06-14T12:25:24;29.20;31.60
37560;DHT22;23398;50.928;7.084;2023-06-14T12:27:53;29.20;31.60
37560;DHT22;23398;50.928;7.084;2023-06-14T12:30:18;29.20;31.60
37560;DHT22;23398;50.928;7.084;2023-06-14T12:32:44;29.10;31.70
37560;DHT22;23398;50.928;7.084;2023-06-14T12:35:11;29.10;31.70
37560;DHT22;23398;50.928;7.084;2023-06-14T12:37:37;29.10;31.70
37560;DHT22;23398;50.928;7.084;2023-06-14T12:40:03;29.10;31.70
37560;DHT22;23398;50.928;7.084;2023-06-14T12:42:31;29.10;31.70
37560;DHT22;23398;50.928;7.084;2023-06-14T12:44:56;29.10;31.80
37560;DHT22;23398;50.928;7.084;2023-06-14T12:47:22;29.10;31.40
37560;DHT22;23398;50.928;7.084;2023-06-14T12:49:48;29.10;31.70
37560;DHT22;23398;50.928;7.084;2023-06-14T12:52:13;29.10;31.90
37560;DHT22;23398;50.928;7.084;2023-06-14T12:54:39;29.00;32.30
37560;DHT22;23398;50.928;7.084;2023-06-14T12:57:05;29.00;32.40
37560;DHT22;23398;50.928;7.084;2023-06-14T12:59:31;29.00;32.20
37560;DHT22;23398;50.928;7.084;2023-06-14T13:02:10;28.90;32.30
37560;DHT22;23398;50.928;7.084;2023-06-14T13:04:36;28.90;31.90
37560;DHT22;23398;50.928;7.084;2023-06-14T13:07:01;28.90;32.40
37560;DHT22;23398;50.928;7.084;2023-06-14T13:09:27;28.80;32.50
37560;DHT22;23398;50.928;7.084;2023-06-14T13:11:52;28.80;32.50
37560;DHT22;23398;50.928;7.084;2023-06-14T13:14:18;28.80;32.30
37560;DHT22;23398;50.928;7.084;2023-06-14T13:16:44;28.80;32.40
37560;DHT22;23398;50.928;7.084;2023-06-14T13:19:09;28.80;32.30
37560;DHT22;23398;50.928;7.084;2023-06-14T13:21:35;28.80;32.60
37560;DHT22;23398;50.928;7.084;2023-06-14T13:24:01;28.80;32.20
37560;DHT22;23398;50.928;7.084;2023-06-14T13:26:26;28.80;32.00
37560;DHT22;23398;50.928;7.084;2023-06-14T13:28:52;28.80;32.10
37560;DHT22;23398;50.928;7.084;2023-06-14T13:31:18;28.80;32.10
37560;DHT22;23398;50.928;7.084;2023-06-14T13:33:43;28.80;31.80
37560;DHT22;23398;50.928;7.084;2023-06-14T13:36:09;28.70;31.90
37560;DHT22;23398;50.928;7.084;2023-06-14T13:38:35;28.70;32.10
37560;DHT22;23398;50.928;7.084;2023-06-14T13:41:01;28.70;32.00
37560;DHT22;23398;50.928;7.084;2023-06-14T13:43:26;28.70;32.40
37560;DHT22;23398;50.928;7.084;2023-06-14T13:45:52;28.70;32.20
37560;DHT22;23398;50.928;7.084;2023-06-14T13:48:17;28.60;32.20
37560;DHT22;23398;50.928;7.084;2023-06-14T13:50:43;28.60;32.10
37560;DHT22;23398;50.928;7.084;2023-06-14T13:53:09;28.60;32.00
37560;DHT22;23398;50.928;7.084;2023-06-14T13:55:35;28.60;32.20
37560;DHT22;23398;50.928;7.084;2023-06-14T13:58:01;28.60;32.50
37560;DHT22;23398;50.928;7.084;2023-06-14T14:00:26;28.60;32.50
37560;DHT22;23398;50.928;7.084;2023-06-14T14:02:52;28.50;32.20
37560;DHT22;23398;50.928;7.084;2023-06-14T14:05:18;28.50;32.10
37560;DHT22;23398;50.928;7.084;2023-06-14T14:07:43;28.60;32.30
37560;DHT22;23398;50.928;7.084;2023-06-14T14:10:10;28.50;32.30
37560;DHT22;23398;50.928;7.084;2023-06-14T14:12:38;28.50;32.60
37560;DHT22;23398;50.928;7.084;2023-06-14T14:15:05;28.50;32.80
37560;DHT22;23398;50.928;7.084;2023-06-14T14:17:37;28.50;32.80
37560;DHT22;23398;50.928;7.084;2023-06-14T14:20:03;28.50;32.80
37560;DHT22;23398;50.928;7.084;2023-06-14T14:22:28;28.50;32.60
37560;DHT22;23398;50.928;7.084;2023-06-14T14:24:54;28.50;32.70
37560;DHT22;23398;50.928;7.084;2023-06-14T14:27:19;28.50;32.60
37560;DHT22;23398;50.928;7.084;2023-06-14T14:29:45;28.50;33.00
37560;DHT22;23398;50.928;7.084;2023-06-14T14:32:11;28.50;32.90
37560;DHT22;23398;50.928;7.084;2023-06-14T14:34:39;28.40;33.00
37560;DHT22;23398;50.928;7.084;2023-06-14T14:37:05;28.40;32.90
37560;DHT22;23398;50.928;7.084;2023-06-14T14:39:30;28.40;33.00
37560;DHT22;23398;50.928;7.084;2023-06-14T14:41:56;28.40;33.50
37560;DHT22;23398;50.928;7.084;2023-06-14T14:44:22;28.40;33.50
37560;DHT22;23398;50.928;7.084;2023-06-14T14:46:47;28.50;33.60
37560;DHT22;23398;50.928;7.084;2023-06-14T14:49:13;28.50;33.10
37560;DHT22;23398;50.928;7.084;2023-06-14T14:51:38;28.50;33.00
37560;DHT22;23398;50.928;7.084;2023-06-14T14:54:05;28.50;32.80
37560;DHT22;23398;50.928;7.084;2023-06-14T14:56:31;28.50;33.10
37560;DHT22;23398;50.928;7.084;2023-06-14T14:58:57;28.50;32.80
37560;DHT22;23398;50.928;7.084;2023-06-14T15:01:22;28.60;33.10
37560;DHT22;23398;50.928;7.084;2023-06-14T15:03:48;28.60;33.10
37560;DHT22;23398;50.928;7.084;2023-06-14T15:06:13;28.60;33.30
37560;DHT22;23398;50.928;7.084;2023-06-14T15:08:39;28.50;33.10
37560;DHT22;23398;50.928;7.084;2023-06-14T15:11:05;28.60;33.30
37560;DHT22;23398;50.928;7.084;2023-06-14T15:13:30;28.50;32.80
37560;DHT22;23398;50.928;7.084;2023-06-14T15:15:56;28.50;32.60
37560;DHT22;23398;50.928;7.084;2023-06-14T15:18:21;28.40;32.60
37560;DHT22;23398;50.928;7.084;2023-06-14T15:20:47;28.40;33.60
37560;DHT22;23398;50.928;7.084;2023-06-14T15:23:13;28.30;32.90
37560;DHT22;23398;50.928;7.084;2023-06-14T15:25:45;28.20;32.90
37560;DHT22;23398;50.928;7.084;2023-06-14T15:28:11;28.20;33.10
37560;DHT22;23398;50.928;7.084;2023-06-14T15:30:37;28.20;33.50
37560;DHT22;23398;50.928;7.084;2023-06-14T15:33:02;28.20;33.20
37560;DHT22;23398;50.928;7.084;2023-06-14T15:35:28;28.20;33.20
37560;DHT22;23398;50.928;7.084;2023-06-14T15:37:53;28.30;33.50
37560;DHT22;23398;50.928;7.084;2023-06-14T15:40:19;28.40;33.60
37560;DHT22;23398;50.928;7.084;2023-06-14T15:42:45;28.40;33.60
37560;DHT22;23398;50.928;7.084;2023-06-14T15:45:10;28.50;33.50